createdAt,value
2023-10-05T00:01:06.976Z,3.65
2023-10-05T00:03:35.203Z,3.80
2023-10-05T00:06:12.040Z,3.55
2023-10-05T00:08:39.344Z,3.58
2023-10-05T00:11:07.872Z,3.55
2023-10-05T00:13:36.526Z,3.58
2023-10-05T00:16:06.372Z,4.32
2023-10-05T00:18:34.239Z,3.90
2023-10-05T00:21:02.061Z,3.83
2023-10-05T00:23:30.128Z,3.75
2023-10-05T00:25:57.754Z,4.20
2023-10-05T00:28:26.930Z,3.65
2023-10-05T00:30:55.702Z,3.53
2023-10-05T00:33:25.103Z,4.05
2023-10-05T00:35:52.393Z,3.75
2023-10-05T00:38:20.453Z,4.05
2023-10-05T00:40:58.785Z,4.20
2023-10-05T00:43:26.935Z,3.88
2023-10-05T00:45:58.811Z,3.85
2023-10-05T00:48:30.933Z,3.78
2023-10-05T00:51:00.665Z,4.03
2023-10-05T00:53:29.450Z,3.72
2023-10-05T00:56:08.940Z,3.75
2023-10-05T00:58:40.160Z,3.22
2023-10-05T01:01:15.843Z,3.65
2023-10-05T01:04:01.497Z,3.75
2023-10-05T01:06:33.744Z,3.85
2023-10-05T01:09:05.303Z,3.97
2023-10-05T01:11:41.571Z,3.70
2023-10-05T01:14:09.655Z,3.60
2023-10-05T01:16:38.497Z,4.13
2023-10-05T01:19:08.792Z,3.85
2023-10-05T01:21:37.000Z,3.67
2023-10-05T01:24:06.220Z,4.07
2023-10-05T01:26:35.959Z,3.63
2023-10-05T01:29:03.442Z,3.95
2023-10-05T01:31:33.777Z,3.92
2023-10-05T01:34:03.227Z,3.80
2023-10-05T01:36:30.646Z,4.10
2023-10-05T01:39:02.872Z,3.55
2023-10-05T01:41:31.565Z,3.28
2023-10-05T01:44:01.543Z,3.67
2023-10-05T01:46:32.297Z,3.50
2023-10-05T01:48:59.713Z,3.55
2023-10-05T01:51:27.884Z,3.70
2023-10-05T01:54:05.205Z,3.42
2023-10-05T01:56:33.831Z,3.28
2023-10-05T01:59:07.419Z,3.53
2023-10-05T02:01:38.709Z,3.97
2023-10-05T02:04:07.440Z,3.40
2023-10-05T02:06:40.480Z,3.75
2023-10-05T02:09:08.969Z,3.70
2023-10-05T02:11:41.640Z,3.83
2023-10-05T02:14:13.814Z,3.95
2023-10-05T02:16:42.007Z,3.47
2023-10-05T02:19:09.839Z,3.92
2023-10-05T02:21:38.128Z,3.75
2023-10-05T02:24:11.829Z,3.80
2023-10-05T02:26:54.511Z,3.50
2023-10-05T02:29:22.815Z,3.70
2023-10-05T02:31:58.823Z,3.55
2023-10-05T02:34:28.726Z,3.50
2023-10-05T02:36:57.211Z,3.35
2023-10-05T02:39:25.217Z,3.50
2023-10-05T02:41:55.393Z,3.67
2023-10-05T02:44:29.525Z,3.47
2023-10-05T02:46:56.890Z,3.25
2023-10-05T02:49:25.159Z,2.80
2023-10-05T02:51:53.885Z,3.33
2023-10-05T02:54:23.242Z,3.50
2023-10-05T02:56:50.758Z,3.50
2023-10-05T02:59:21.701Z,3.22
2023-10-05T03:01:49.991Z,3.40
2023-10-05T03:04:22.789Z,3.33
2023-10-05T03:06:53.957Z,3.33
2023-10-05T03:09:22.915Z,3.20
2023-10-05T03:11:50.709Z,3.22
2023-10-05T03:14:19.385Z,3.33
2023-10-05T03:16:49.111Z,3.13
2023-10-05T03:19:21.590Z,3.33
2023-10-05T03:21:49.021Z,3.20
2023-10-05T03:24:16.323Z,3.17
2023-10-05T03:26:43.638Z,3.60
2023-10-05T03:29:13.137Z,2.95
2023-10-05T03:31:54.579Z,3.00
2023-10-05T03:34:22.136Z,3.88
2023-10-05T03:36:49.542Z,2.95
2023-10-05T03:39:18.694Z,3.20
2023-10-05T03:41:46.004Z,3.63
2023-10-05T03:44:16.983Z,3.00
2023-10-05T03:46:47.747Z,3.15
2023-10-05T03:49:16.340Z,3.28
2023-10-05T03:51:50.670Z,3.53
2023-10-05T03:54:18.636Z,3.15
2023-10-05T03:56:46.734Z,3.40
2023-10-05T03:59:14.077Z,2.75
2023-10-05T04:01:41.448Z,2.97
2023-10-05T04:04:10.195Z,3.20
2023-10-05T04:06:37.851Z,3.00
2023-10-05T04:09:08.075Z,3.20
2023-10-05T04:11:35.446Z,3.22
2023-10-05T04:14:04.912Z,3.35
2023-10-05T04:16:35.476Z,2.90
2023-10-05T04:19:06.092Z,3.25
2023-10-05T04:21:35.242Z,3.30
2023-10-05T04:24:04.043Z,2.65
2023-10-05T04:26:38.174Z,2.72
2023-10-05T04:29:06.552Z,3.10
2023-10-05T04:31:37.187Z,2.90
2023-10-05T04:34:06.692Z,3.15
2023-10-05T04:36:35.354Z,2.83
2023-10-05T04:39:05.873Z,3.30
2023-10-05T04:41:35.905Z,3.10
2023-10-05T04:44:04.652Z,2.95
2023-10-05T04:46:32.052Z,2.90
2023-10-05T04:49:09.010Z,2.85
2023-10-05T04:51:39.817Z,2.97
2023-10-05T04:54:08.000Z,3.30
2023-10-05T04:56:44.113Z,3.00
2023-10-05T04:59:25.886Z,2.72
2023-10-05T05:02:00.865Z,2.70
2023-10-05T05:04:53.397Z,3.28
2023-10-05T05:07:23.204Z,2.90
2023-10-05T05:09:51.705Z,3.30
2023-10-05T05:12:19.266Z,2.85
2023-10-05T05:14:47.017Z,2.95
2023-10-05T05:17:14.875Z,3.00
2023-10-05T05:19:42.261Z,2.92
2023-10-05T05:22:10.049Z,3.38
2023-10-05T05:24:38.821Z,3.35
2023-10-05T05:27:12.770Z,2.85
2023-10-05T05:29:40.114Z,3.53
2023-10-05T05:32:11.234Z,2.85
2023-10-05T05:34:38.592Z,3.20
2023-10-05T05:37:06.498Z,3.03
2023-10-05T05:39:40.173Z,3.35
2023-10-05T05:42:14.664Z,3.25
2023-10-05T05:44:42.617Z,3.55
2023-10-05T05:47:10.916Z,3.15
2023-10-05T05:49:39.514Z,3.35
2023-10-05T05:52:07.133Z,3.17
2023-10-05T05:54:34.618Z,4.18
2023-10-05T05:57:01.946Z,4.18
2023-10-05T05:59:30.605Z,3.92
2023-10-05T06:01:58.021Z,3.80
2023-10-05T06:04:26.540Z,4.03
2023-10-05T06:06:53.927Z,3.88
2023-10-05T06:09:23.628Z,4.50
2023-10-05T06:11:51.150Z,4.10
2023-10-05T06:14:19.246Z,4.20
2023-10-05T06:16:47.903Z,4.00
2023-10-05T06:19:15.269Z,4.18
2023-10-05T06:21:43.210Z,3.80
2023-10-05T06:24:11.788Z,4.15
2023-10-05T06:26:41.612Z,4.47
2023-10-05T06:29:09.829Z,6.10
2023-10-05T06:31:37.546Z,6.00
2023-10-05T06:34:09.337Z,7.28
2023-10-05T06:36:37.961Z,6.28
2023-10-05T06:39:07.112Z,6.13
2023-10-05T06:41:35.289Z,5.60
2023-10-05T06:44:03.401Z,5.70
2023-10-05T06:46:29.880Z,6.05
2023-10-05T06:48:58.452Z,5.05
2023-10-05T06:51:27.721Z,153.63
2023-10-05T06:53:55.074Z,179.27
2023-10-05T06:56:22.393Z,88.88
2023-10-05T06:58:49.660Z,97.13
2023-10-05T07:01:20.724Z,114.53
2023-10-05T07:03:53.662Z,114.63
2023-10-05T07:06:22.336Z,127.88
2023-10-05T07:08:53.226Z,120.55
2023-10-05T07:11:20.606Z,116.75
2023-10-05T07:13:48.446Z,107.40
2023-10-05T07:16:15.850Z,101.25
2023-10-05T07:18:43.355Z,94.82
2023-10-05T07:21:10.875Z,92.47
2023-10-05T07:23:38.688Z,91.50
2023-10-05T07:26:07.444Z,83.78
2023-10-05T07:28:36.023Z,79.82
2023-10-05T07:31:04.290Z,74.85
2023-10-05T07:33:31.793Z,71.57
2023-10-05T07:35:59.344Z,71.93
2023-10-05T07:38:28.313Z,69.72
2023-10-05T07:40:55.724Z,63.88
2023-10-05T07:43:24.647Z,59.67
2023-10-05T07:45:52.012Z,58.00
2023-10-05T07:48:21.658Z,57.42
2023-10-05T07:50:50.871Z,46.17
2023-10-05T07:53:18.528Z,47.13
2023-10-05T07:55:45.878Z,47.42
2023-10-05T07:58:13.736Z,46.33
2023-10-05T08:00:43.308Z,43.25
2023-10-05T08:03:10.836Z,42.47
2023-10-05T08:05:38.374Z,41.03
2023-10-05T08:08:06.686Z,40.17
2023-10-05T08:10:33.985Z,38.80
2023-10-05T08:13:02.006Z,36.78
2023-10-05T08:15:29.673Z,17.95
2023-10-05T08:17:58.331Z,18.80
2023-10-05T08:20:28.661Z,21.42
2023-10-05T08:22:57.973Z,21.73
2023-10-05T08:25:26.068Z,20.67
2023-10-05T08:27:56.302Z,20.65
2023-10-05T08:32:57.703Z,18.85
2023-10-05T08:35:27.375Z,19.05
2023-10-05T08:37:54.976Z,19.25
2023-10-05T08:40:39.721Z,18.40
2023-10-05T08:43:11.434Z,18.10
2023-10-05T08:45:48.413Z,18.25
2023-10-05T08:48:20.495Z,17.77
2023-10-05T08:50:50.116Z,15.10
2023-10-05T08:53:20.540Z,15.15
2023-10-05T08:55:48.187Z,13.43
2023-10-05T08:58:19.755Z,10.02
2023-10-05T09:00:47.280Z,10.32
2023-10-05T09:03:31.339Z,11.13
2023-10-05T09:06:14.135Z,11.25
2023-10-05T09:08:42.938Z,11.50
2023-10-05T09:11:10.650Z,11.10
2023-10-05T09:13:45.377Z,10.43
2023-10-05T09:16:16.500Z,10.15
2023-10-05T09:18:50.479Z,10.68
2023-10-05T09:21:26.660Z,10.98
2023-10-05T09:23:54.028Z,11.60
2023-10-05T09:26:35.787Z,12.00
2023-10-05T09:29:21.472Z,11.95
2023-10-05T09:31:51.884Z,11.35
2023-10-05T09:34:21.302Z,10.70
2023-10-05T09:36:54.374Z,10.48
2023-10-05T09:39:21.934Z,9.90
2023-10-05T09:41:51.310Z,9.43
2023-10-05T09:44:19.417Z,9.50
2023-10-05T09:46:48.484Z,8.38
2023-10-05T09:49:18.644Z,8.80
2023-10-05T09:51:49.398Z,8.68
2023-10-05T09:54:18.125Z,8.70
2023-10-05T09:56:48.098Z,8.07
2023-10-05T09:59:17.678Z,9.50
2023-10-05T10:01:46.414Z,9.02
2023-10-05T10:04:25.617Z,8.60
2023-10-05T10:06:54.412Z,8.73
2023-10-05T10:09:27.965Z,8.98
2023-10-05T10:11:55.867Z,8.07
2023-10-05T10:14:27.472Z,6.05
2023-10-05T10:17:03.190Z,6.10
2023-10-05T10:19:44.426Z,5.90
2023-10-05T10:22:13.543Z,6.07
2023-10-05T10:24:42.195Z,5.57
2023-10-05T10:27:14.032Z,5.90
2023-10-05T10:29:43.399Z,5.82
2023-10-05T10:32:19.645Z,5.30
2023-10-05T10:34:51.925Z,5.13
2023-10-05T10:37:40.282Z,4.90
2023-10-05T10:40:16.232Z,4.57
2023-10-05T10:42:50.233Z,4.95
2023-10-05T10:45:24.347Z,5.38
2023-10-05T10:47:53.391Z,4.63
2023-10-05T10:50:25.148Z,4.40
2023-10-05T10:52:52.580Z,4.63
2023-10-05T10:55:22.209Z,4.07
2023-10-05T10:57:54.113Z,4.18
2023-10-05T11:00:55.581Z,4.38
2023-10-05T11:03:25.630Z,4.05
2023-10-05T11:05:53.352Z,3.80
2023-10-05T11:08:26.559Z,3.80
2023-10-05T11:11:01.100Z,3.92
2023-10-05T11:13:28.610Z,3.85
2023-10-05T11:16:00.771Z,3.75
2023-10-05T11:18:31.692Z,3.65
2023-10-05T11:21:05.837Z,3.28
2023-10-05T11:23:43.641Z,3.80
2023-10-05T11:26:19.967Z,4.45
2023-10-05T11:28:51.374Z,4.97
2023-10-05T11:31:37.818Z,5.57
2023-10-05T11:34:55.563Z,6.95
2023-10-05T11:37:00.197Z,8.85
2023-10-05T11:39:28.045Z,11.25
2023-10-05T11:41:58.212Z,17.33
2023-10-05T11:44:25.918Z,22.65
2023-10-05T11:46:55.081Z,27.98
2023-10-05T11:49:22.675Z,29.50
2023-10-05T11:51:57.531Z,30.30
2023-10-05T11:54:25.640Z,35.20
2023-10-05T11:56:54.457Z,36.85
2023-10-05T11:59:28.541Z,34.78
2023-10-05T12:01:55.951Z,34.30
2023-10-05T12:04:25.075Z,32.92
2023-10-05T12:06:59.496Z,31.57
2023-10-05T12:09:31.841Z,30.77
2023-10-05T12:11:59.858Z,30.02
2023-10-05T12:14:28.502Z,29.73
2023-10-05T12:16:57.545Z,30.80
2023-10-05T12:19:29.925Z,29.88
2023-10-05T12:21:59.627Z,29.48
2023-10-05T12:24:27.733Z,27.40
2023-10-05T12:26:56.095Z,26.65
2023-10-05T12:29:23.395Z,61.50
2023-10-05T12:31:52.306Z,28.88
2023-10-05T12:34:29.406Z,182.45
2023-10-05T12:36:57.259Z,64.45
2023-10-05T12:39:27.649Z,57.50
2023-10-05T12:41:55.955Z,51.33
2023-10-05T12:44:24.087Z,50.58
2023-10-05T12:46:52.963Z,47.70
2023-10-05T12:49:21.518Z,145.95
2023-10-05T12:51:48.963Z,74.28
2023-10-05T12:54:20.096Z,60.42
2023-10-05T12:56:47.479Z,57.35
2023-10-05T12:59:16.601Z,55.05
2023-10-05T13:01:44.034Z,52.55
2023-10-05T13:04:13.001Z,51.15
2023-10-05T13:06:40.390Z,49.53
2023-10-05T13:09:12.971Z,46.50
2023-10-05T13:11:40.481Z,46.65
2023-10-05T13:14:09.891Z,44.58
2023-10-05T13:16:37.388Z,42.95
2023-10-05T13:19:08.017Z,39.20
2023-10-05T13:21:37.480Z,39.17
2023-10-05T13:24:04.990Z,38.05
2023-10-05T13:26:32.282Z,34.72
2023-10-05T13:29:04.131Z,34.15
2023-10-05T13:31:33.469Z,32.03
2023-10-05T13:34:02.118Z,32.13
2023-10-05T13:36:31.343Z,29.95
2023-10-05T13:39:00.906Z,30.23
2023-10-05T13:41:28.705Z,28.35
2023-10-05T13:43:56.870Z,27.17
2023-10-05T13:46:24.933Z,25.77
2023-10-05T13:48:55.143Z,26.65
2023-10-05T13:51:24.216Z,24.90
2023-10-05T13:53:55.728Z,24.48
2023-10-05T13:56:28.818Z,22.75
2023-10-05T13:59:01.875Z,22.30
2023-10-05T14:01:34.864Z,20.75
2023-10-05T14:04:02.420Z,19.55
2023-10-05T14:06:30.700Z,20.75
2023-10-05T14:09:06.272Z,19.98
2023-10-05T14:11:35.655Z,18.88
2023-10-05T14:14:05.029Z,17.03
2023-10-05T14:16:39.917Z,17.67
2023-10-05T14:19:08.010Z,17.75
2023-10-05T14:21:35.490Z,16.92
2023-10-05T14:24:02.801Z,16.92
2023-10-05T14:26:30.090Z,15.18
2023-10-05T14:28:58.710Z,15.45
2023-10-05T14:31:26.118Z,16.27
2023-10-05T14:33:55.431Z,15.13
2023-10-05T14:36:22.892Z,14.43
2023-10-05T14:38:51.391Z,13.77
2023-10-05T14:41:20.243Z,13.40
2023-10-05T14:43:47.648Z,13.05
2023-10-05T14:46:22.352Z,13.30
2023-10-05T14:48:49.781Z,12.93
2023-10-05T14:51:17.598Z,12.35
2023-10-05T14:53:44.973Z,11.85
2023-10-05T14:56:12.686Z,11.13
2023-10-05T14:58:40.368Z,11.38
2023-10-05T15:03:38.166Z,11.73
2023-10-05T15:06:05.700Z,10.77
2023-10-05T15:08:33.437Z,10.45
2023-10-05T15:11:01.426Z,10.05
2023-10-05T15:13:28.782Z,10.02
2023-10-05T15:15:56.101Z,10.10
2023-10-05T15:18:23.389Z,10.10
2023-10-05T15:20:52.144Z,9.77
2023-10-05T15:23:19.422Z,9.80
2023-10-05T15:25:49.077Z,9.60
2023-10-05T15:28:18.488Z,8.67
2023-10-05T15:30:47.557Z,9.40
2023-10-05T15:33:14.911Z,8.90
2023-10-05T15:35:42.622Z,8.88
2023-10-05T15:38:11.261Z,9.07
2023-10-05T15:40:39.252Z,8.80
2023-10-05T15:43:06.613Z,8.32
2023-10-05T15:45:35.833Z,9.05
2023-10-05T15:48:10.149Z,8.40
2023-10-05T15:50:40.039Z,7.78
2023-10-05T15:53:08.120Z,8.02
2023-10-05T15:55:36.918Z,8.57
2023-10-05T15:58:07.907Z,7.93
2023-10-05T16:00:35.702Z,8.10
2023-10-05T16:03:04.167Z,7.63
2023-10-05T16:05:34.007Z,7.47
2023-10-05T16:08:01.701Z,7.57
2023-10-05T16:10:29.337Z,7.60
2023-10-05T16:12:57.979Z,8.15
2023-10-05T16:15:25.560Z,7.78
2023-10-05T16:17:53.064Z,6.93
2023-10-05T16:20:23.373Z,7.05
2023-10-05T16:22:54.023Z,7.20
2023-10-05T16:25:21.468Z,6.50
2023-10-05T16:27:49.143Z,6.60
2023-10-05T16:30:19.961Z,5.97
2023-10-05T16:32:47.762Z,6.90
2023-10-05T16:35:15.640Z,6.82
2023-10-05T16:37:43.649Z,6.18
2023-10-05T16:40:12.122Z,6.68
2023-10-05T16:42:40.495Z,6.40
2023-10-05T16:45:08.568Z,6.95
2023-10-05T16:47:37.234Z,5.55
2023-10-05T16:50:06.827Z,6.50
2023-10-05T16:52:36.355Z,5.75
2023-10-05T16:55:03.853Z,5.78
2023-10-05T16:57:31.188Z,5.72
2023-10-05T16:59:58.495Z,5.78
2023-10-05T17:02:26.161Z,5.60
2023-10-05T17:04:55.284Z,5.50
2023-10-05T17:07:22.638Z,5.75
2023-10-05T17:09:50.770Z,5.65
2023-10-05T17:12:18.153Z,5.05
2023-10-05T17:14:45.420Z,5.13
2023-10-05T17:17:14.578Z,5.13
2023-10-05T17:19:41.957Z,5.23
2023-10-05T17:22:10.585Z,4.97
2023-10-05T17:24:39.780Z,4.82
2023-10-05T17:27:08.096Z,5.30
2023-10-05T17:29:35.784Z,5.72
2023-10-05T17:32:04.630Z,5.07
2023-10-05T17:34:32.216Z,4.93
2023-10-05T17:36:59.572Z,4.85
2023-10-05T17:39:28.204Z,4.63
2023-10-05T17:41:55.501Z,4.53
2023-10-05T17:44:22.805Z,4.72
2023-10-05T17:46:50.205Z,4.55
2023-10-05T17:49:17.569Z,4.15
2023-10-05T17:51:44.924Z,4.57
2023-10-05T17:54:12.198Z,4.82
2023-10-05T17:56:40.803Z,4.45
2023-10-05T17:59:08.256Z,4.30
2023-10-05T18:01:35.761Z,4.90
2023-10-05T18:04:03.251Z,4.10
2023-10-05T18:06:31.539Z,4.18
2023-10-05T18:09:02.105Z,4.20
2023-10-05T18:11:30.367Z,4.32
2023-10-05T18:13:59.414Z,4.05
2023-10-05T18:16:26.833Z,4.23
2023-10-05T18:18:54.133Z,4.47
2023-10-05T18:21:22.761Z,4.53
2023-10-05T18:23:50.485Z,4.72
2023-10-05T18:26:21.402Z,4.63
2023-10-05T18:28:48.821Z,4.25
2023-10-05T18:31:17.725Z,4.82
2023-10-05T18:33:45.858Z,4.45
2023-10-05T18:36:13.136Z,4.05
2023-10-05T18:38:40.399Z,3.70
2023-10-05T18:41:08.445Z,4.10
2023-10-05T18:43:35.744Z,4.03
2023-10-05T18:46:05.394Z,3.90
2023-10-05T18:48:35.193Z,3.60
2023-10-05T18:51:04.869Z,3.95
2023-10-05T18:53:32.235Z,4.15
2023-10-05T18:55:59.542Z,3.60
2023-10-05T18:58:27.109Z,3.92
2023-10-05T19:00:58.504Z,3.70
2023-10-05T19:03:25.890Z,3.90
2023-10-05T19:05:54.515Z,3.88
2023-10-05T19:08:21.820Z,3.80
2023-10-05T19:10:49.121Z,3.40
2023-10-05T19:13:16.410Z,3.53
2023-10-05T19:15:43.775Z,3.75
2023-10-05T19:18:11.166Z,3.53
2023-10-05T19:20:38.542Z,4.20
2023-10-05T19:23:07.188Z,3.50
2023-10-05T19:25:34.475Z,3.92
2023-10-05T19:28:01.829Z,3.55
2023-10-05T19:30:29.117Z,3.33
2023-10-05T19:32:56.419Z,3.47
2023-10-05T19:35:23.898Z,3.80
2023-10-05T19:37:51.185Z,3.20
2023-10-05T19:40:19.908Z,3.70
2023-10-05T19:42:49.817Z,3.70
2023-10-05T19:45:17.104Z,3.80
2023-10-05T19:47:44.452Z,3.60
2023-10-05T19:50:11.923Z,3.35
2023-10-05T19:52:39.242Z,3.35
2023-10-05T19:55:06.807Z,3.72
2023-10-05T19:57:35.394Z,3.53
2023-10-05T20:00:05.419Z,3.92
2023-10-05T20:05:00.181Z,3.70
2023-10-05T20:07:28.684Z,3.75
2023-10-05T20:09:57.713Z,3.45
2023-10-05T20:12:26.115Z,3.38
2023-10-05T20:14:54.879Z,3.67
2023-10-05T20:17:22.321Z,3.90
2023-10-05T20:19:49.709Z,3.50
2023-10-05T20:22:17.250Z,2.97
2023-10-05T20:24:44.552Z,3.50
2023-10-05T20:27:16.520Z,3.67
2023-10-05T20:29:44.183Z,3.22
2023-10-05T20:32:12.822Z,3.53
2023-10-05T20:34:43.245Z,3.67
2023-10-05T20:37:10.751Z,3.60
2023-10-05T20:39:38.085Z,3.20
2023-10-05T20:42:05.454Z,3.20
2023-10-05T20:44:33.658Z,3.63
2023-10-05T20:47:01.693Z,3.80
2023-10-05T20:49:34.899Z,4.45
2023-10-05T20:52:02.456Z,3.42
2023-10-05T20:54:29.714Z,3.70
2023-10-05T20:56:57.331Z,3.80
2023-10-05T20:59:31.526Z,3.63
2023-10-05T21:01:59.572Z,3.63
2023-10-05T21:04:27.033Z,3.65
2023-10-05T21:06:55.690Z,3.65
2023-10-05T21:09:22.963Z,3.40
2023-10-05T21:11:50.241Z,3.40
2023-10-05T21:14:17.637Z,4.05
2023-10-05T21:16:45.195Z,3.65
2023-10-05T21:19:12.763Z,3.80
2023-10-05T21:21:40.070Z,3.47
2023-10-05T21:24:09.564Z,3.78
2023-10-05T21:26:37.812Z,3.55
2023-10-05T21:29:06.060Z,3.88
2023-10-05T21:31:33.483Z,3.25
2023-10-05T21:34:00.851Z,3.63
2023-10-05T21:36:28.137Z,3.58
2023-10-05T21:38:55.452Z,3.65
2023-10-05T21:41:24.063Z,3.58
2023-10-05T21:43:51.436Z,3.45
2023-10-05T21:46:20.922Z,3.60
2023-10-05T21:48:48.234Z,3.55
2023-10-05T21:51:15.789Z,3.63
2023-10-05T21:53:43.218Z,3.53
2023-10-05T21:56:10.984Z,3.35
2023-10-05T21:58:40.590Z,3.25
2023-10-05T22:01:07.955Z,3.63
2023-10-05T22:03:35.342Z,3.33
2023-10-05T22:06:05.355Z,3.05
2023-10-05T22:08:32.639Z,2.92
2023-10-05T22:11:00.956Z,3.20
2023-10-05T22:13:28.420Z,2.80
2023-10-05T22:15:57.153Z,2.95
2023-10-05T22:18:24.430Z,3.30
2023-10-05T22:20:51.714Z,3.40
2023-10-05T22:23:19.124Z,3.25
2023-10-05T22:25:46.425Z,3.20
2023-10-05T22:28:13.729Z,3.13
2023-10-05T22:30:41.131Z,2.92
2023-10-05T22:33:10.342Z,2.78
2023-10-05T22:35:38.674Z,3.17
2023-10-05T22:38:06.305Z,2.80
2023-10-05T22:40:35.183Z,2.72
2023-10-05T22:43:02.817Z,2.73
2023-10-05T22:45:30.282Z,2.90
2023-10-05T22:47:57.664Z,2.88
2023-10-05T22:50:26.395Z,2.80
2023-10-05T22:52:53.685Z,2.65
2023-10-05T22:55:20.991Z,2.80
2023-10-05T22:57:48.275Z,2.70
2023-10-05T23:00:15.826Z,2.70
2023-10-05T23:02:43.186Z,3.08
2023-10-05T23:05:10.616Z,2.58
2023-10-05T23:07:41.336Z,2.63
2023-10-05T23:10:08.951Z,2.65
2023-10-05T23:12:36.328Z,2.63
2023-10-05T23:15:06.097Z,2.70
2023-10-05T23:17:36.018Z,2.72
2023-10-05T23:20:08.617Z,2.80
2023-10-05T23:22:37.321Z,2.70
2023-10-05T23:25:18.254Z,2.30
2023-10-05T23:27:46.864Z,2.58
2023-10-05T23:30:15.079Z,2.97
2023-10-05T23:32:46.347Z,2.42
2023-10-05T23:35:16.433Z,2.45
2023-10-05T23:40:14.422Z,2.92
2023-10-05T23:42:42.870Z,2.60
2023-10-05T23:45:12.207Z,2.70
2023-10-05T23:47:39.950Z,2.58
2023-10-05T23:50:11.619Z,2.40
2023-10-05T23:52:39.698Z,2.63
2023-10-05T23:55:09.990Z,2.75
2023-10-05T23:57:38.789Z,2.75
